createdAt,value
2023-10-07T00:01:18.362Z,14.41
2023-10-07T00:03:45.707Z,14.39
2023-10-07T00:06:14.932Z,14.36
2023-10-07T00:08:42.645Z,14.33
2023-10-07T00:11:18.853Z,14.25
2023-10-07T00:13:49.548Z,14.23
2023-10-07T00:16:18.687Z,14.19
2023-10-07T00:18:46.923Z,14.14
2023-10-07T00:21:25.161Z,14.09
2023-10-07T00:23:54.478Z,14.07
2023-10-07T00:26:21.765Z,14.01
2023-10-07T00:28:56.098Z,13.96
2023-10-07T00:31:29.455Z,13.95
2023-10-07T00:34:19.512Z,13.93
2023-10-07T00:36:49.634Z,13.91
2023-10-07T00:39:22.683Z,13.88
2023-10-07T00:41:55.590Z,13.86
2023-10-07T00:44:33.085Z,13.82
2023-10-07T00:47:04.847Z,13.77
2023-10-07T00:49:57.414Z,13.71
2023-10-07T00:52:26.550Z,13.71
2023-10-07T00:55:10.458Z,13.67
2023-10-07T00:57:38.798Z,13.65
2023-10-07T01:00:24.546Z,13.60
2023-10-07T01:02:58.333Z,13.54
2023-10-07T01:05:28.694Z,13.54
2023-10-07T01:07:56.913Z,13.53
2023-10-07T01:10:28.929Z,13.51
2023-10-07T01:13:02.376Z,13.48
2023-10-07T01:15:31.566Z,13.43
2023-10-07T01:18:05.571Z,13.41
2023-10-07T01:20:39.428Z,13.37
2023-10-07T01:23:08.594Z,13.34
2023-10-07T01:25:45.307Z,13.33
2023-10-07T01:28:16.648Z,13.28
2023-10-07T01:31:05.133Z,13.26
2023-10-07T01:33:40.949Z,13.21
2023-10-07T01:36:17.677Z,13.20
2023-10-07T01:38:46.408Z,13.17
2023-10-07T01:41:36.382Z,13.12
2023-10-07T01:44:06.909Z,13.10
2023-10-07T01:46:36.235Z,13.04
2023-10-07T01:49:13.938Z,13.04
2023-10-07T01:51:50.066Z,13.02
2023-10-07T01:54:17.022Z,13.02
2023-10-07T01:56:44.260Z,12.95
2023-10-07T01:59:17.437Z,12.91
2023-10-07T02:02:07.686Z,12.90
2023-10-07T02:04:35.722Z,12.86
2023-10-07T02:07:04.149Z,12.85
2023-10-07T02:09:36.721Z,12.86
2023-10-07T02:12:10.567Z,12.82
2023-10-07T02:14:38.489Z,12.76
2023-10-07T02:17:08.299Z,12.74
2023-10-07T02:19:35.294Z,12.70
2023-10-07T02:22:05.109Z,12.69
2023-10-07T02:24:33.540Z,12.67
2023-10-07T02:27:07.236Z,12.66
2023-10-07T02:29:35.845Z,12.60
2023-10-07T02:32:15.883Z,12.58
2023-10-07T02:34:56.934Z,12.57
2023-10-07T02:37:32.593Z,12.53
2023-10-07T02:40:20.595Z,12.49
2023-10-07T02:42:48.179Z,12.47
2023-10-07T02:45:29.962Z,12.47
2023-10-07T02:48:02.845Z,12.45
2023-10-07T02:50:32.742Z,12.43
2023-10-07T02:53:03.436Z,12.42
2023-10-07T02:55:39.599Z,12.39
2023-10-07T02:58:08.014Z,12.36
2023-10-07T03:00:38.163Z,12.34
2023-10-07T03:03:16.339Z,12.32
2023-10-07T03:05:47.237Z,12.28
2023-10-07T03:08:21.128Z,12.24
2023-10-07T03:11:12.344Z,12.23
2023-10-07T03:13:50.643Z,12.19
2023-10-07T03:16:24.833Z,12.15
2023-10-07T03:19:02.061Z,12.14
2023-10-07T03:21:42.191Z,12.11
2023-10-07T03:24:13.690Z,12.05
2023-10-07T03:26:44.161Z,12.03
2023-10-07T03:29:17.623Z,11.97
2023-10-07T03:31:47.323Z,11.94
2023-10-07T03:34:15.418Z,11.93
2023-10-07T03:37:02.297Z,11.91
2023-10-07T03:39:43.681Z,11.90
2023-10-07T03:42:11.217Z,11.88
2023-10-07T03:44:38.570Z,11.84
2023-10-07T03:47:11.627Z,11.84
2023-10-07T03:49:42.247Z,11.80
2023-10-07T03:52:13.693Z,11.79
2023-10-07T03:54:42.321Z,11.76
2023-10-07T03:57:10.651Z,11.72
2023-10-07T03:59:40.800Z,11.70
2023-10-07T04:02:27.830Z,11.70
2023-10-07T04:05:01.757Z,11.66
2023-10-07T04:07:32.463Z,11.64
2023-10-07T04:10:21.432Z,11.70
2023-10-07T04:12:49.457Z,11.72
2023-10-07T04:15:19.553Z,11.70
2023-10-07T04:17:47.018Z,11.68
2023-10-07T04:20:20.175Z,11.68
2023-10-07T04:23:02.400Z,11.65
2023-10-07T04:25:31.501Z,11.63
2023-10-07T04:27:59.518Z,11.65
2023-10-07T04:30:29.575Z,11.63
2023-10-07T04:33:02.649Z,11.63
2023-10-07T04:35:34.317Z,11.60
2023-10-07T04:38:11.327Z,11.61
2023-10-07T04:40:58.170Z,11.58
2023-10-07T04:43:37.319Z,11.55
2023-10-07T04:46:22.983Z,11.55
2023-10-07T04:48:57.624Z,11.54
2023-10-07T04:51:34.542Z,11.51
2023-10-07T04:54:02.845Z,11.49
2023-10-07T04:56:34.401Z,11.50
2023-10-07T04:59:01.801Z,11.51
2023-10-07T05:01:35.297Z,11.51
2023-10-07T05:04:06.798Z,11.48
2023-10-07T05:06:36.133Z,11.47
2023-10-07T05:09:19.940Z,11.46
2023-10-07T05:11:48.496Z,11.45
2023-10-07T05:14:19.005Z,11.43
2023-10-07T05:16:49.833Z,11.41
2023-10-07T05:19:22.903Z,11.40
2023-10-07T05:22:00.697Z,11.39
2023-10-07T05:24:31.588Z,11.37
2023-10-07T05:27:02.595Z,11.37
2023-10-07T05:29:30.461Z,11.35
2023-10-07T05:31:58.797Z,11.38
2023-10-07T05:34:31.939Z,11.39
2023-10-07T05:37:02.893Z,11.37
2023-10-07T05:39:29.958Z,11.39
2023-10-07T05:42:01.839Z,11.36
2023-10-07T05:44:31.328Z,11.37
2023-10-07T05:47:00.572Z,11.37
2023-10-07T05:49:27.867Z,11.40
2023-10-07T05:51:55.782Z,11.38
2023-10-07T05:54:23.012Z,11.40
2023-10-07T05:56:49.921Z,11.42
2023-10-07T05:59:17.258Z,11.42
2023-10-07T06:01:44.734Z,11.43
2023-10-07T06:04:13.486Z,11.43
2023-10-07T06:06:43.695Z,11.44
2023-10-07T06:09:15.575Z,11.46
2023-10-07T06:11:45.088Z,11.47
2023-10-07T06:14:12.972Z,11.50
2023-10-07T06:16:43.996Z,11.51
2023-10-07T06:19:14.581Z,11.51
2023-10-07T06:21:57.663Z,11.52
2023-10-07T06:24:25.228Z,11.56
2023-10-07T06:26:55.413Z,11.57
2023-10-07T06:29:22.750Z,11.59
2023-10-07T06:31:57.202Z,11.60
2023-10-07T06:34:27.456Z,11.61
2023-10-07T06:36:55.790Z,11.63
2023-10-07T06:39:28.864Z,11.64
2023-10-07T06:41:59.796Z,11.65
2023-10-07T06:44:27.208Z,11.67
2023-10-07T06:46:57.944Z,11.70
2023-10-07T06:49:25.101Z,11.70
2023-10-07T06:51:58.066Z,11.71
2023-10-07T06:54:33.256Z,11.73
2023-10-07T06:57:03.072Z,11.74
2023-10-07T06:59:30.887Z,11.77
2023-10-07T07:02:06.670Z,11.78
2023-10-07T07:04:36.977Z,11.82
2023-10-07T07:07:17.522Z,11.85
2023-10-07T07:09:50.956Z,11.90
2023-10-07T07:12:23.542Z,11.95
2023-10-07T07:15:06.157Z,11.99
2023-10-07T07:17:37.419Z,12.04
2023-10-07T07:20:13.992Z,12.11
2023-10-07T07:22:44.104Z,12.16
2023-10-07T07:25:19.361Z,12.23
2023-10-07T07:27:47.234Z,12.30
2023-10-07T07:30:21.131Z,12.37
2023-10-07T07:32:57.068Z,12.42
2023-10-07T07:35:39.950Z,12.50
2023-10-07T07:38:28.260Z,12.57
2023-10-07T07:41:10.551Z,12.65
2023-10-07T07:43:39.940Z,12.73
2023-10-07T07:46:30.742Z,12.78
2023-10-07T07:49:08.420Z,12.87
2023-10-07T07:51:39.512Z,12.94
2023-10-07T07:54:10.215Z,12.99
2023-10-07T07:56:38.586Z,13.06
2023-10-07T07:59:14.783Z,13.10
2023-10-07T08:01:45.968Z,13.14
2023-10-07T08:04:34.666Z,13.20
2023-10-07T08:07:07.473Z,13.23
2023-10-07T08:09:38.371Z,13.28
2023-10-07T08:12:10.872Z,13.32
2023-10-07T08:14:42.202Z,13.34
2023-10-07T08:17:09.797Z,13.40
2023-10-07T08:19:42.386Z,13.44
2023-10-07T08:22:19.874Z,13.49
2023-10-07T08:24:47.430Z,13.54
2023-10-07T08:27:34.883Z,13.59
2023-10-07T08:30:11.321Z,13.64
2023-10-07T08:32:44.489Z,13.71
2023-10-07T08:35:20.817Z,13.77
2023-10-07T08:37:51.886Z,13.83
2023-10-07T08:40:30.461Z,13.90
2023-10-07T08:42:59.940Z,13.95
2023-10-07T08:45:32.442Z,14.01
2023-10-07T08:48:10.613Z,14.06
2023-10-07T08:50:59.126Z,14.13
2023-10-07T08:53:28.226Z,14.15
2023-10-07T08:55:58.552Z,14.16
2023-10-07T08:58:29.211Z,14.22
2023-10-07T09:00:57.524Z,14.29
2023-10-07T09:03:30.346Z,14.35
2023-10-07T09:06:07.488Z,14.42
2023-10-07T09:08:35.329Z,14.51
2023-10-07T09:11:09.225Z,14.58
2023-10-07T09:13:39.957Z,14.67
2023-10-07T09:16:08.584Z,14.75
2023-10-07T09:18:42.063Z,14.85
2023-10-07T09:21:20.563Z,14.93
2023-10-07T09:23:53.533Z,15.03
2023-10-07T09:26:23.747Z,15.13
2023-10-07T09:29:00.047Z,15.23
2023-10-07T09:31:28.422Z,15.34
2023-10-07T09:34:11.295Z,15.45
2023-10-07T09:36:41.715Z,15.56
2023-10-07T09:39:34.988Z,15.68
2023-10-07T09:42:26.606Z,15.80
2023-10-07T09:45:17.474Z,15.92
2023-10-07T09:47:48.693Z,16.03
2023-10-07T09:50:25.518Z,16.15
2023-10-07T09:53:22.258Z,16.25
2023-10-07T09:55:58.483Z,16.34
2023-10-07T09:58:53.995Z,16.50
2023-10-07T10:01:40.003Z,16.63
2023-10-07T10:04:30.771Z,16.72
2023-10-07T10:07:15.117Z,16.81
2023-10-07T10:10:00.554Z,16.89
2023-10-07T10:12:50.139Z,16.98
2023-10-07T10:15:21.180Z,17.06
2023-10-07T10:17:57.384Z,17.13
2023-10-07T10:20:43.767Z,17.21
2023-10-07T10:23:20.723Z,17.20
2023-10-07T10:25:54.046Z,17.26
2023-10-07T10:28:30.369Z,17.33
2023-10-07T10:30:58.198Z,17.39
2023-10-07T10:33:27.409Z,17.44
2023-10-07T10:35:59.420Z,17.51
2023-10-07T10:38:42.246Z,17.56
2023-10-07T10:41:12.911Z,17.63
2023-10-07T10:43:40.332Z,17.68
2023-10-07T10:46:09.245Z,17.73
2023-10-07T10:48:38.012Z,17.78
2023-10-07T10:51:07.013Z,17.83
2023-10-07T10:53:36.029Z,17.90
2023-10-07T10:56:04.469Z,17.95
2023-10-07T10:58:49.970Z,18.00
2023-10-07T11:01:17.228Z,18.07
2023-10-07T11:03:50.431Z,18.14
2023-10-07T11:06:20.576Z,18.26
2023-10-07T11:08:47.822Z,18.33
2023-10-07T11:11:16.142Z,18.39
2023-10-07T11:13:45.392Z,18.44
2023-10-07T11:16:13.080Z,18.49
2023-10-07T11:18:44.359Z,18.53
2023-10-07T11:21:13.187Z,18.58
2023-10-07T11:23:56.024Z,18.63
2023-10-07T11:26:27.468Z,18.67
2023-10-07T11:28:57.619Z,18.73
2023-10-07T11:31:32.288Z,18.77
2023-10-07T11:34:00.890Z,18.83
2023-10-07T11:36:28.536Z,18.85
2023-10-07T11:38:57.749Z,18.90
2023-10-07T11:41:24.713Z,18.95
2023-10-07T11:43:53.782Z,19.01
2023-10-07T11:46:21.677Z,19.05
2023-10-07T11:48:49.022Z,19.09
2023-10-07T11:51:16.817Z,19.12
2023-10-07T11:53:44.072Z,19.15
2023-10-07T11:56:15.876Z,19.19
2023-10-07T11:58:47.727Z,19.23
2023-10-07T12:01:15.070Z,19.26
2023-10-07T12:03:44.866Z,19.29
2023-10-07T12:06:13.359Z,19.34
2023-10-07T12:08:40.915Z,19.37
2023-10-07T12:11:09.542Z,19.41
2023-10-07T12:13:36.755Z,19.42
2023-10-07T12:16:06.272Z,19.46
2023-10-07T12:18:34.008Z,19.50
2023-10-07T12:21:13.569Z,19.53
2023-10-07T12:23:45.819Z,19.56
2023-10-07T12:26:17.910Z,19.59
2023-10-07T12:28:50.150Z,19.63
2023-10-07T12:31:17.537Z,19.67
2023-10-07T12:33:44.713Z,19.71
2023-10-07T12:36:16.712Z,19.75
2023-10-07T12:38:44.445Z,19.79
2023-10-07T12:41:14.528Z,19.82
2023-10-07T12:43:42.079Z,19.86
2023-10-07T12:46:11.377Z,19.91
2023-10-07T12:48:41.791Z,19.96
2023-10-07T12:51:10.001Z,20.01
2023-10-07T12:53:37.734Z,20.06
2023-10-07T12:56:20.623Z,20.10
2023-10-07T12:58:48.416Z,20.14
2023-10-07T13:01:16.628Z,20.18
2023-10-07T13:03:45.198Z,20.23
2023-10-07T13:06:16.630Z,20.28
2023-10-07T13:08:45.459Z,20.33
2023-10-07T13:11:15.578Z,20.36
2023-10-07T13:13:46.839Z,20.42
2023-10-07T13:16:18.963Z,20.46
2023-10-07T13:18:46.512Z,20.52
2023-10-07T13:21:20.422Z,20.58
2023-10-07T13:23:48.390Z,20.62
2023-10-07T13:26:16.680Z,20.67
2023-10-07T13:29:04.734Z,20.72
2023-10-07T13:31:32.301Z,20.76
2023-10-07T13:33:59.530Z,20.83
2023-10-07T13:36:28.146Z,20.88
2023-10-07T13:38:57.814Z,20.92
2023-10-07T13:41:24.906Z,20.98
2023-10-07T13:43:53.481Z,21.03
2023-10-07T13:46:20.904Z,21.07
2023-10-07T13:48:48.170Z,21.13
2023-10-07T13:51:17.003Z,21.17
2023-10-07T13:54:13.307Z,21.16
2023-10-07T13:56:49.663Z,21.17
2023-10-07T13:59:17.581Z,21.20
2023-10-07T14:01:47.820Z,21.24
2023-10-07T14:04:17.139Z,21.28
2023-10-07T14:06:44.443Z,21.30
2023-10-07T14:09:17.697Z,21.33
2023-10-07T14:11:47.687Z,21.36
2023-10-07T14:14:14.800Z,21.38
2023-10-07T14:16:42.106Z,21.39
2023-10-07T14:19:09.230Z,21.40
2023-10-07T14:21:36.919Z,21.41
2023-10-07T14:24:07.051Z,21.43
2023-10-07T14:26:36.727Z,21.43
2023-10-07T14:29:07.854Z,21.46
2023-10-07T14:31:38.182Z,21.47
2023-10-07T14:34:09.284Z,21.47
2023-10-07T14:36:36.880Z,21.48
2023-10-07T14:39:04.370Z,21.49
2023-10-07T14:41:32.010Z,21.49
2023-10-07T14:43:59.803Z,21.51
2023-10-07T14:46:27.179Z,21.52
2023-10-07T14:48:55.091Z,21.54
2023-10-07T14:51:22.295Z,21.54
2023-10-07T14:53:49.856Z,21.55
2023-10-07T14:56:23.224Z,21.56
2023-10-07T14:58:51.143Z,21.56
2023-10-07T15:01:23.536Z,21.58
2023-10-07T15:03:52.103Z,21.62
2023-10-07T15:06:19.300Z,21.66
2023-10-07T15:08:46.617Z,21.66
2023-10-07T15:11:21.557Z,21.67
2023-10-07T15:13:52.950Z,21.65
2023-10-07T15:16:22.526Z,21.65
2023-10-07T15:18:50.785Z,21.65
2023-10-07T15:21:19.152Z,21.64
2023-10-07T15:23:46.879Z,21.63
2023-10-07T15:26:19.950Z,21.62
2023-10-07T15:28:49.555Z,21.61
2023-10-07T15:31:24.915Z,21.60
2023-10-07T15:34:05.359Z,21.59
2023-10-07T15:36:32.627Z,21.58
2023-10-07T15:38:59.853Z,21.57
2023-10-07T15:41:27.186Z,21.56
2023-10-07T15:43:54.317Z,21.54
2023-10-07T15:46:22.060Z,21.53
2023-10-07T15:48:49.235Z,21.52
2023-10-07T15:51:16.869Z,21.51
2023-10-07T15:53:44.953Z,21.49
2023-10-07T15:56:14.276Z,21.48
2023-10-07T15:58:43.158Z,21.43
2023-10-07T16:01:12.438Z,21.40
2023-10-07T16:03:40.647Z,21.40
2023-10-07T16:06:09.302Z,21.38
2023-10-07T16:08:38.639Z,21.37
2023-10-07T16:11:16.059Z,21.34
2023-10-07T16:13:44.748Z,21.33
2023-10-07T16:16:11.827Z,21.32
2023-10-07T16:18:41.266Z,21.29
2023-10-07T16:21:16.190Z,21.28
2023-10-07T16:23:44.105Z,21.25
2023-10-07T16:26:16.182Z,21.23
2023-10-07T16:28:45.635Z,21.23
2023-10-07T16:31:16.795Z,21.20
2023-10-07T16:33:44.041Z,21.18
2023-10-07T16:36:11.440Z,21.16
2023-10-07T16:38:42.461Z,21.14
2023-10-07T16:41:14.898Z,21.11
2023-10-07T16:43:44.577Z,21.08
2023-10-07T16:46:12.276Z,21.07
2023-10-07T16:48:41.025Z,21.04
2023-10-07T16:51:13.431Z,21.02
2023-10-07T16:53:42.344Z,21.00
2023-10-07T16:56:19.090Z,20.97
2023-10-07T16:58:46.634Z,20.94
2023-10-07T17:01:14.968Z,20.92
2023-10-07T17:03:42.519Z,20.89
2023-10-07T17:06:10.362Z,20.86
2023-10-07T17:08:38.770Z,20.83
2023-10-07T17:11:11.378Z,20.80
2023-10-07T17:13:42.260Z,20.76
2023-10-07T17:16:09.325Z,20.72
2023-10-07T17:18:37.355Z,20.70
2023-10-07T17:21:10.237Z,20.68
2023-10-07T17:23:39.815Z,20.64
2023-10-07T17:26:08.797Z,20.60
2023-10-07T17:28:37.261Z,20.58
2023-10-07T17:31:10.255Z,20.55
2023-10-07T17:33:38.362Z,20.53
2023-10-07T17:36:05.963Z,20.49
2023-10-07T17:38:34.772Z,20.47
2023-10-07T17:41:02.706Z,20.44
2023-10-07T17:43:32.765Z,20.42
2023-10-07T17:46:01.613Z,20.41
2023-10-07T17:48:30.692Z,20.39
2023-10-07T17:50:59.490Z,20.35
2023-10-07T17:53:27.778Z,20.32
2023-10-07T17:55:55.598Z,20.31
2023-10-07T17:58:22.952Z,20.28
2023-10-07T18:00:51.287Z,20.26
2023-10-07T18:03:24.475Z,20.23
2023-10-07T18:05:51.992Z,20.20
2023-10-07T18:08:20.190Z,20.19
2023-10-07T18:10:47.584Z,20.15
2023-10-07T18:13:15.385Z,20.13
2023-10-07T18:15:44.176Z,20.11
2023-10-07T18:18:11.500Z,20.09
2023-10-07T18:20:38.701Z,20.07
2023-10-07T18:23:06.654Z,20.04
2023-10-07T18:25:34.446Z,20.02
2023-10-07T18:28:02.030Z,20.01
2023-10-07T18:30:30.239Z,20.00
2023-10-07T18:32:57.516Z,19.98
2023-10-07T18:35:29.381Z,19.97
2023-10-07T18:37:57.358Z,19.94
2023-10-07T18:40:26.035Z,19.92
2023-10-07T18:42:53.700Z,19.88
2023-10-07T18:45:21.088Z,19.86
2023-10-07T18:47:48.305Z,19.86
2023-10-07T18:50:17.610Z,19.84
2023-10-07T18:52:45.540Z,19.82
2023-10-07T18:55:13.417Z,19.81
2023-10-07T18:57:41.233Z,19.79
2023-10-07T19:00:10.991Z,19.78
2023-10-07T19:02:42.022Z,19.76
2023-10-07T19:05:17.498Z,19.75
2023-10-07T19:07:46.577Z,19.74
2023-10-07T19:10:14.536Z,19.72
2023-10-07T19:12:42.658Z,19.68
2023-10-07T19:15:11.777Z,19.67
2023-10-07T19:17:39.812Z,19.62
2023-10-07T19:20:08.678Z,19.62
2023-10-07T19:22:43.081Z,19.59
2023-10-07T19:25:12.574Z,19.57
2023-10-07T19:27:40.671Z,19.57
2023-10-07T19:30:11.846Z,19.53
2023-10-07T19:32:43.464Z,19.52
2023-10-07T19:35:11.868Z,19.48
2023-10-07T19:37:39.596Z,19.47
2023-10-07T19:40:08.073Z,19.45
2023-10-07T19:42:36.038Z,19.45
2023-10-07T19:45:03.350Z,19.42
2023-10-07T19:47:30.781Z,19.40
2023-10-07T19:49:58.459Z,19.38
2023-10-07T19:52:25.939Z,19.34
2023-10-07T19:54:53.954Z,19.31
2023-10-07T19:57:21.679Z,19.30
2023-10-07T19:59:53.367Z,19.28
2023-10-07T20:02:21.604Z,19.26
2023-10-07T20:04:49.337Z,19.22
2023-10-07T20:07:24.719Z,19.18
2023-10-07T20:09:53.140Z,19.17
2023-10-07T20:12:20.429Z,19.15
2023-10-07T20:14:55.960Z,19.13
2023-10-07T20:17:23.122Z,19.12
2023-10-07T20:19:50.406Z,19.11
2023-10-07T20:22:18.584Z,19.08
2023-10-07T20:24:46.056Z,19.08
2023-10-07T20:27:15.229Z,19.07
2023-10-07T20:29:42.970Z,19.05
2023-10-07T20:32:10.539Z,19.03
2023-10-07T20:34:37.875Z,19.02
2023-10-07T20:37:05.119Z,18.99
2023-10-07T20:39:32.817Z,18.98
2023-10-07T20:42:00.543Z,18.95
2023-10-07T20:44:28.109Z,18.95
2023-10-07T20:46:56.222Z,18.95
2023-10-07T20:49:23.556Z,18.92
2023-10-07T20:51:50.635Z,18.91
2023-10-07T20:54:17.492Z,18.91
2023-10-07T20:56:44.388Z,18.89
2023-10-07T20:59:12.148Z,18.89
2023-10-07T21:01:39.893Z,18.87
2023-10-07T21:04:07.466Z,18.85
2023-10-07T21:06:34.840Z,18.84
2023-10-07T21:09:02.043Z,18.82
2023-10-07T21:11:29.298Z,18.81
2023-10-07T21:13:59.516Z,18.79
2023-10-07T21:16:26.967Z,18.78
2023-10-07T21:18:55.724Z,18.77
2023-10-07T21:21:22.912Z,18.75
2023-10-07T21:23:49.906Z,18.73
2023-10-07T21:26:25.058Z,18.71
2023-10-07T21:28:55.646Z,18.68
2023-10-07T21:31:31.701Z,18.65
2023-10-07T21:33:59.355Z,18.65
2023-10-07T21:36:26.951Z,18.63
2023-10-07T21:38:54.005Z,18.60
2023-10-07T21:41:21.214Z,18.58
2023-10-07T21:43:48.780Z,18.56
2023-10-07T21:46:19.640Z,18.55
2023-10-07T21:48:47.878Z,18.51
2023-10-07T21:51:19.211Z,18.49
2023-10-07T21:53:46.847Z,18.48
2023-10-07T21:56:13.878Z,18.46
2023-10-07T21:58:41.092Z,18.41
2023-10-07T22:01:17.086Z,18.38
2023-10-07T22:03:45.588Z,18.35
2023-10-07T22:06:14.850Z,18.32
2023-10-07T22:08:43.299Z,18.29
2023-10-07T22:11:11.736Z,18.26
2023-10-07T22:13:41.894Z,18.24
2023-10-07T22:16:09.451Z,18.23
2023-10-07T22:18:37.347Z,18.20
2023-10-07T22:21:05.160Z,18.16
2023-10-07T22:23:34.696Z,18.14
2023-10-07T22:26:09.058Z,18.13
2023-10-07T22:28:36.833Z,18.10
2023-10-07T22:31:07.771Z,18.06
2023-10-07T22:33:36.502Z,18.07
2023-10-07T22:36:09.684Z,18.05
2023-10-07T22:38:40.997Z,18.04
2023-10-07T22:41:17.329Z,18.02
2023-10-07T22:43:45.290Z,18.00
2023-10-07T22:46:15.937Z,17.97
2023-10-07T22:48:47.549Z,17.96
2023-10-07T22:51:24.572Z,17.94
2023-10-07T22:54:02.603Z,17.90
2023-10-07T22:56:33.000Z,17.89
2023-10-07T22:59:06.773Z,17.88
2023-10-07T23:01:37.707Z,17.85
2023-10-07T23:04:16.223Z,17.84
2023-10-07T23:07:00.917Z,17.81
2023-10-07T23:09:38.409Z,17.79
2023-10-07T23:12:16.911Z,17.77
2023-10-07T23:14:46.450Z,17.74
2023-10-07T23:17:23.152Z,17.72
2023-10-07T23:19:51.505Z,17.71
2023-10-07T23:22:21.174Z,17.71
2023-10-07T23:25:08.692Z,17.68
2023-10-07T23:27:45.304Z,17.66
2023-10-07T23:30:27.288Z,17.64
2023-10-07T23:33:00.657Z,17.64
2023-10-07T23:35:33.383Z,17.62
2023-10-07T23:38:11.481Z,17.60
2023-10-07T23:40:39.080Z,17.60
2023-10-07T23:43:11.295Z,17.60
2023-10-07T23:45:44.387Z,17.60
2023-10-07T23:48:13.868Z,17.59
2023-10-07T23:50:43.839Z,17.61
2023-10-07T23:53:15.833Z,17.61
2023-10-07T23:55:44.764Z,17.63
2023-10-07T23:58:22.722Z,17.65
